Seaboard Ocean — A8SB7 — position and weather

sailwx.info

Track history (hours):
 
Tides and Currents Weather Stations Pressure Air Temp Water Temp Dewpoint Dewpoint Depression Visibility Wind Speed Wind Dir Waves Ship Positions

Seaboard Ocean

Last reported at 2017-Sep-18 06:13 UTC. Time now 2017-Sep-21 10:44 UTC.
Position N 16°15' W 062°06'.

Length 148 m; draft 7.3 m.

Type: Ship. MMSI: 636091731.

Date/timePositionNaut miles runAvg speedWind from/ knotsBaromVisibWave heightAir tempDewpointWater temp
2017-Sep-18 06:13N 16°15' W 062°06'418.3
2017-Sep-18 06:00N 16°19' W 062°06'918.2
2017-Sep-18 05:30N 16°28' W 062°05'917.9
2017-Sep-18 05:00N 16°37' W 062°05'918.1
2017-Sep-18 04:30N 16°46' W 062°04'917.9
2017-Sep-18 04:00N 16°55' W 062°03'917.8
2017-Sep-18 03:30N 17°04' W 062°02'815.2
2017-Sep-18 03:00N 17°09' W 061°56'5 9.8
2017-Sep-18 02:30N 17°07' W 061°51'0 0.0
2017-Sep-18 02:00N 17°08' W 061°51'0 0.0
2017-Sep-18 01:30N 17°08' W 061°51'0 0.0
2017-Sep-18 01:00N 17°08' W 061°51'0 0.0
2017-Sep-18 00:30N 17°08' W 061°51'0 0.0
2017-Sep-18 00:00N 17°08' W 061°51'0 0.0
2017-Sep-17 23:30N 17°08' W 061°51'1 2.4
2017-Sep-17 23:00N 17°08' W 061°53'611.4
2017-Sep-17 22:30N 17°11' W 061°58'816.9
2017-Sep-17 22:00N 17°16' W 062°05'816.9
2017-Sep-17 21:30N 17°21' W 062°12'816.9
2017-Sep-17 21:00N 17°26' W 062°19'917.2
2017-Sep-17 20:30N 17°31' W 062°27'  
2017-Sep-14 19:11N 26°06' W 079°21'317.7
2017-Sep-14 19:00N 26°05' W 079°24'917.5
2017-Sep-14 18:30N 26°01' W 079°33'917.7
2017-Sep-14 18:00N 25°57' W 079°42'917.6
2017-Sep-14 17:30N 25°53' W 079°51'918.2
2017-Sep-14 17:00N 25°49' W 079°59'713.9
2017-Sep-14 16:30N 25°46' W 080°06'4 7.1
2017-Sep-14 16:01N 25°46' W 080°10'0 0.0
2017-Sep-14 15:30N 25°46' W 080°10'0 0.0
2017-Sep-14 15:00N 25°46' W 080°10'0 0.0
2017-Sep-14 14:30N 25°46' W 080°10'0 0.3
2017-Sep-14 13:59N 25°46' W 080°10'0 0.0
2017-Sep-14 13:29N 25°46' W 080°10'0 0.0
2017-Sep-14 12:57N 25°46' W 080°10'0 0.0
2017-Sep-14 12:30N 25°46' W 080°10'0 0.3
2017-Sep-14 11:58N 25°46' W 080°10'0 0.0
2017-Sep-14 11:30N 25°46' W 080°10'0 0.0
2017-Sep-14 10:51N 25°46' W 080°10'0 0.0
2017-Sep-14 10:30N 25°46' W 080°10'0 0.0
2017-Sep-14 10:00N 25°46' W 080°10'0 0.0
2017-Sep-14 09:29N 25°46' W 080°10'0 0.0
2017-Sep-14 08:59N 25°46' W 080°10'0 0.0
2017-Sep-14 08:29N 25°46' W 080°10'0 0.0
2017-Sep-14 07:59N 25°46' W 080°10'0 0.0
2017-Sep-14 07:29N 25°46' W 080°10'0 0.0
2017-Sep-14 06:58N 25°46' W 080°10'0 0.0
2017-Sep-14 06:25N 25°46' W 080°10'0 0.0
2017-Sep-14 05:58N 25°46' W 080°10'0 0.0
2017-Sep-14 05:28N 25°46' W 080°10'0 0.0
2017-Sep-14 04:58N 25°46' W 080°10'0 0.0
2017-Sep-14 04:30N 25°46' W 080°10'0 0.0
2017-Sep-14 04:00N 25°46' W 080°10'0 0.0
2017-Sep-14 03:24N 25°46' W 080°10'0 0.0
2017-Sep-14 03:00N 25°46' W 080°10'0 0.0
2017-Sep-14 02:29N 25°46' W 080°10'0 0.0
2017-Sep-14 01:59N 25°46' W 080°10'0 0.0
2017-Sep-14 01:29N 25°46' W 080°10'0 0.0
2017-Sep-14 00:59N 25°46' W 080°10'0 0.0
2017-Sep-14 00:23N 25°46' W 080°10'0 0.0
2017-Sep-13 23:58N 25°46' W 080°10'0 0.0
2017-Sep-13 23:25N 25°46' W 080°10'0 0.0
2017-Sep-13 22:58N 25°46' W 080°10'0 0.0
2017-Sep-13 22:28N 25°46' W 080°10'0 0.0
2017-Sep-13 21:57N 25°46' W 080°10'0 0.0
2017-Sep-13 21:30N 25°46' W 080°10'0 0.0
2017-Sep-13 21:00N 25°46' W 080°10'0 0.0
2017-Sep-13 20:30N 25°46' W 080°10'0 0.0
2017-Sep-13 20:00N 25°46' W 080°10'1 2.5
2017-Sep-13 19:30N 25°46' W 080°09'5 9.6
2017-Sep-13 19:00N 25°46' W 080°03'714.1
2017-Sep-13 18:31N 25°40' W 079°59'917.0
2017-Sep-13 18:00N 25°32' W 079°56'  
Track history (hours):
 
Tides and Currents Weather Stations Pressure Air Temp Water Temp Dewpoint Dewpoint Depression Visibility Wind Speed Wind Dir Waves Ship Positions

Seaboard Ocean

Last reported at 2017-Sep-18 06:13 UTC. Time now 2017-Sep-21 10:44 UTC.
Position N 16°15' W 062°06'.

Length 148 m; draft 7.3 m.

Type: Ship. MMSI: 636091731.

Date/timePositionNaut miles runAvg speedWind from/ knotsBaromVisibWave heightAir tempDewpointWater temp
2017-Sep-18 06:13N 16°15' W 062°06'418.3
2017-Sep-18 06:00N 16°19' W 062°06'918.2
2017-Sep-18 05:30N 16°28' W 062°05'917.9
2017-Sep-18 05:00N 16°37' W 062°05'918.1
2017-Sep-18 04:30N 16°46' W 062°04'917.9
2017-Sep-18 04:00N 16°55' W 062°03'917.8
2017-Sep-18 03:30N 17°04' W 062°02'815.2
2017-Sep-18 03:00N 17°09' W 061°56'5 9.8
2017-Sep-18 02:30N 17°07' W 061°51'0 0.0
2017-Sep-18 02:00N 17°08' W 061°51'0 0.0
2017-Sep-18 01:30N 17°08' W 061°51'0 0.0
2017-Sep-18 01:00N 17°08' W 061°51'0 0.0
2017-Sep-18 00:30N 17°08' W 061°51'0 0.0
2017-Sep-18 00:00N 17°08' W 061°51'0 0.0
2017-Sep-17 23:30N 17°08' W 061°51'1 2.4
2017-Sep-17 23:00N 17°08' W 061°53'611.4
2017-Sep-17 22:30N 17°11' W 061°58'816.9
2017-Sep-17 22:00N 17°16' W 062°05'816.9
2017-Sep-17 21:30N 17°21' W 062°12'816.9
2017-Sep-17 21:00N 17°26' W 062°19'917.2
2017-Sep-17 20:30N 17°31' W 062°27'  
2017-Sep-14 19:11N 26°06' W 079°21'317.7
2017-Sep-14 19:00N 26°05' W 079°24'917.5
2017-Sep-14 18:30N 26°01' W 079°33'917.7
2017-Sep-14 18:00N 25°57' W 079°42'917.6
2017-Sep-14 17:30N 25°53' W 079°51'918.2
2017-Sep-14 17:00N 25°49' W 079°59'713.9
2017-Sep-14 16:30N 25°46' W 080°06'4 7.1
2017-Sep-14 16:01N 25°46' W 080°10'0 0.0
2017-Sep-14 15:30N 25°46' W 080°10'0 0.0
2017-Sep-14 15:00N 25°46' W 080°10'0 0.0
2017-Sep-14 14:30N 25°46' W 080°10'0 0.3
2017-Sep-14 13:59N 25°46' W 080°10'0 0.0
2017-Sep-14 13:29N 25°46' W 080°10'0 0.0
2017-Sep-14 12:57N 25°46' W 080°10'0 0.0
2017-Sep-14 12:30N 25°46' W 080°10'0 0.3
2017-Sep-14 11:58N 25°46' W 080°10'0 0.0
2017-Sep-14 11:30N 25°46' W 080°10'0 0.0
2017-Sep-14 10:51N 25°46' W 080°10'0 0.0
2017-Sep-14 10:30N 25°46' W 080°10'0 0.0
2017-Sep-14 10:00N 25°46' W 080°10'0 0.0
2017-Sep-14 09:29N 25°46' W 080°10'0 0.0
2017-Sep-14 08:59N 25°46' W 080°10'0 0.0
2017-Sep-14 08:29N 25°46' W 080°10'0 0.0
2017-Sep-14 07:59N 25°46' W 080°10'0 0.0
2017-Sep-14 07:29N 25°46' W 080°10'0 0.0
2017-Sep-14 06:58N 25°46' W 080°10'0 0.0
2017-Sep-14 06:25N 25°46' W 080°10'0 0.0
2017-Sep-14 05:58N 25°46' W 080°10'0 0.0
2017-Sep-14 05:28N 25°46' W 080°10'0 0.0
2017-Sep-14 04:58N 25°46' W 080°10'0 0.0
2017-Sep-14 04:30N 25°46' W 080°10'0 0.0
2017-Sep-14 04:00N 25°46' W 080°10'0 0.0
2017-Sep-14 03:24N 25°46' W 080°10'0 0.0
2017-Sep-14 03:00N 25°46' W 080°10'0 0.0
2017-Sep-14 02:29N 25°46' W 080°10'0 0.0
2017-Sep-14 01:59N 25°46' W 080°10'0 0.0
2017-Sep-14 01:29N 25°46' W 080°10'0 0.0
2017-Sep-14 00:59N 25°46' W 080°10'0 0.0
2017-Sep-14 00:23N 25°46' W 080°10'0 0.0
2017-Sep-13 23:58N 25°46' W 080°10'0 0.0
2017-Sep-13 23:25N 25°46' W 080°10'0 0.0
2017-Sep-13 22:58N 25°46' W 080°10'0 0.0
2017-Sep-13 22:28N 25°46' W 080°10'0 0.0
2017-Sep-13 21:57N 25°46' W 080°10'0 0.0
2017-Sep-13 21:30N 25°46' W 080°10'0 0.0
2017-Sep-13 21:00N 25°46' W 080°10'0 0.0
2017-Sep-13 20:30N 25°46' W 080°10'0 0.0
2017-Sep-13 20:00N 25°46' W 080°10'1 2.5
2017-Sep-13 19:30N 25°46' W 080°09'5 9.6
2017-Sep-13 19:00N 25°46' W 080°03'714.1
2017-Sep-13 18:31N 25°40' W 079°59'917.0
2017-Sep-13 18:00N 25°32' W 079°56'  

Dump ship's entire track history